Time;durP1;ratioP1;P1;durP2;ratioP2;P2;SDS_P1;SDS_P2;PMS_P1;PMS_P2;Temp;Humidity;BMP_temperature;BMP_pressure;BME280_temperature;BME280_humidity;BME280_pressure;Samples;Min_cycle;Max_cycle;Signal;HPM_P1;HPM_P2
2023/05/29 00:01:37;;;;;;;;;;;;;;;14.32;61.27;96436.50;5026183;28;19963;-77
2023/05/29 00:04:03;;;;;;;;;;;;;;;14.29;61.08;96439.59;5026700;28;19954;-78
2023/05/29 00:06:29;;;;;;;;;;;;;;;14.28;61.78;96439.81;5025310;28;19957;-77
2023/05/29 00:08:55;;;;;;;;;;;;;;;14.26;62.54;96448.00;5025701;28;19976;-78
2023/05/29 00:11:22;;;;;;;;;;;;;;;14.24;62.31;96444.81;5026799;28;19958;-78
2023/05/29 00:13:48;;;;;;;;;;;;;;;14.21;63.21;96451.38;5026717;28;20151;-77
2023/05/29 00:16:14;;;;;;;;;;;;;;;14.19;63.44;96456.09;5025174;28;19962;-74
2023/05/29 00:18:45;;;;;;;;;;;;;;;14.14;64.30;96449.91;5026098;28;20133;-70
2023/05/29 00:21:12;;;;;;;;;;;;;;;14.08;64.32;96450.88;5026041;28;20146;-70
2023/05/29 00:23:38;;;;;;;;;;;;;;;14.02;63.67;96442.06;5026149;28;19970;-69
2023/05/29 00:26:04;;;;;;;;;;;;;;;13.96;65.71;96450.94;5026263;28;19952;-69
2023/05/29 00:28:30;;;;;;;;;;;;;;;13.88;64.56;96440.78;5026295;28;20240;-69
2023/05/29 00:30:55;;;;;;;;;;;;;;;13.80;66.60;96444.63;5026213;28;19955;-69
2023/05/29 00:33:21;;;;;;;;;;;;;;;13.74;65.72;96438.47;5024708;28;20160;-71
2023/05/29 00:35:47;;;;;;;;;;;;;;;13.67;64.77;96434.38;5025346;28;20218;-74
2023/05/29 00:38:13;;;;;;;;;;;;;;;13.58;67.60;96434.75;5026192;28;20001;-74
2023/05/29 00:40:42;;;;;;;;;;;;;;;13.55;64.37;96435.25;5026083;28;20182;-75
2023/05/29 00:43:08;;;;;;;;;;;;;;;13.52;66.53;96437.53;5025991;28;19963;-77
2023/05/29 00:45:36;;;;;;;;;;;;;;;13.48;65.80;96439.06;5025621;28;19965;-75
2023/05/29 00:48:06;;;;;;;;;;;;;;;13.42;65.89;96434.72;5026468;28;19960;-76
2023/05/29 00:50:33;;;;;;;;;;;;;;;13.38;65.45;96442.31;5025595;28;20013;-75
2023/05/29 00:53:02;;;;;;;;;;;;;;;13.34;67.37;96443.81;5025655;28;20165;-76
2023/05/29 00:55:29;;;;;;;;;;;;;;;13.31;67.33;96437.19;5025681;28;19968;-76
2023/05/29 00:57:55;;;;;;;;;;;;;;;13.29;67.45;96443.72;5025750;28;20235;-76
2023/05/29 01:00:21;;;;;;;;;;;;;;;13.27;65.30;96433.41;5025588;28;19958;-74
2023/05/29 01:02:47;;;;;;;;;;;;;;;13.23;65.39;96427.00;5025036;28;19959;-77
2023/05/29 01:05:14;;;;;;;;;;;;;;;13.20;68.43;96432.72;5025834;28;20335;-75
2023/05/29 01:07:44;;;;;;;;;;;;;;;13.19;69.52;96446.94;5025424;28;20270;-76
2023/05/29 01:10:10;;;;;;;;;;;;;;;13.17;67.21;96433.19;5025311;28;19959;-70
2023/05/29 01:12:40;;;;;;;;;;;;;;;13.13;67.14;96440.75;5025110;28;19962;-72
2023/05/29 01:15:12;;;;;;;;;;;;;;;13.10;69.01;96443.06;5025325;28;20247;-71
2023/05/29 01:17:39;;;;;;;;;;;;;;;13.08;68.46;96453.84;5023853;28;19968;-70
2023/05/29 01:20:09;;;;;;;;;;;;;;;13.07;68.45;96449.59;5023894;28;19968;-70
2023/05/29 01:22:34;;;;;;;;;;;;;;;13.06;68.52;96452.44;5025155;28;20032;-70
2023/05/29 01:25:12;;;;;;;;;;;;;;;13.03;69.09;96447.66;5023892;28;20208;-71
2023/05/29 01:27:39;;;;;;;;;;;;;;;13.05;67.79;96437.69;5007777;28;19949;-71
2023/05/29 01:30:05;;;;;;;;;;;;;;;13.04;68.09;96438.72;5024126;28;19968;-70
2023/05/29 01:32:31;;;;;;;;;;;;;;;13.03;68.40;96437.13;5023715;28;19962;-77
2023/05/29 01:34:57;;;;;;;;;;;;;;;13.03;69.31;96442.41;5025270;28;20000;-79
2023/05/29 01:37:23;;;;;;;;;;;;;;;13.00;70.03;96439.19;5023425;28;20007;-77
2023/05/29 01:39:49;;;;;;;;;;;;;;;13.02;70.36;96446.06;5007501;28;19967;-76
2023/05/29 01:42:15;;;;;;;;;;;;;;;13.02;68.94;96444.25;5024643;28;19961;-78
2023/05/29 01:44:41;;;;;;;;;;;;;;;13.05;69.78;96440.34;5024972;28;20235;-78
2023/05/29 01:47:08;;;;;;;;;;;;;;;13.06;70.13;96448.00;5023464;28;19965;-76
2023/05/29 01:49:36;;;;;;;;;;;;;;;13.09;69.24;96441.47;5024902;28;19964;-70
2023/05/29 01:52:02;;;;;;;;;;;;;;;13.14;69.35;96436.28;5039991;28;19964;-78
2023/05/29 01:54:27;;;;;;;;;;;;;;;13.18;69.02;96448.75;5024812;28;19963;-77
2023/05/29 01:56:53;;;;;;;;;;;;;;;13.22;69.19;96449.09;5024660;28;20003;-78
2023/05/29 01:59:20;;;;;;;;;;;;;;;13.24;68.89;96448.88;5023866;28;20025;-76
2023/05/29 02:01:47;;;;;;;;;;;;;;;13.26;68.60;96452.84;5023529;28;20138;-78
2023/05/29 02:04:13;;;;;;;;;;;;;;;13.27;68.91;96449.19;5024771;28;19960;-76
2023/05/29 02:06:39;;;;;;;;;;;;;;;13.26;68.93;96455.50;5024230;28;19958;-76
2023/05/29 02:09:06;;;;;;;;;;;;;;;13.25;69.00;96458.34;5040054;28;19964;-71
2023/05/29 02:11:32;;;;;;;;;;;;;;;13.22;68.95;96462.25;5024429;28;19960;-70
2023/05/29 02:13:58;;;;;;;;;;;;;;;13.22;68.81;96467.53;5024706;28;19962;-72
2023/05/29 02:16:24;;;;;;;;;;;;;;;13.19;69.22;96454.84;5024502;28;19960;-72
2023/05/29 02:18:51;;;;;;;;;;;;;;;13.18;68.87;96456.66;5023224;28;19957;-72
2023/05/29 02:21:17;;;;;;;;;;;;;;;13.17;68.96;96454.28;5024493;28;19955;-72
2023/05/29 02:23:43;;;;;;;;;;;;;;;13.15;69.33;96462.41;5024505;28;20186;-71
2023/05/29 02:26:09;;;;;;;;;;;;;;;13.13;69.53;96453.94;5024463;28;19943;-77
2023/05/29 02:28:35;;;;;;;;;;;;;;;13.12;69.66;96462.88;5024732;28;19992;-70
2023/05/29 02:31:02;;;;;;;;;;;;;;;13.11;71.48;96460.47;5023348;28;19971;-69
2023/05/29 02:33:27;;;;;;;;;;;;;;;13.11;71.80;96455.19;5039867;28;19959;-69
2023/05/29 02:35:53;;;;;;;;;;;;;;;13.10;70.23;96449.16;5022898;28;19959;-69
2023/05/29 02:38:19;;;;;;;;;;;;;;;13.07;69.78;96446.97;5024452;28;19967;-69
2023/05/29 02:40:45;;;;;;;;;;;;;;;13.05;70.13;96445.59;5027205;28;19959;-69
2023/05/29 02:43:12;;;;;;;;;;;;;;;13.01;70.11;96445.25;5010555;28;19985;-74
2023/05/29 02:45:38;;;;;;;;;;;;;;;12.98;70.29;96451.00;5028323;28;19963;-70
2023/05/29 02:48:04;;;;;;;;;;;;;;;12.92;70.44;96447.47;5028091;28;20268;-71
2023/05/29 02:50:30;;;;;;;;;;;;;;;12.90;70.73;96454.00;5028129;28;19958;-70
2023/05/29 02:52:56;;;;;;;;;;;;;;;12.87;70.38;96446.53;5028312;28;20047;-71
2023/05/29 02:55:22;;;;;;;;;;;;;;;12.84;70.97;96450.44;5028183;28;19949;-71
2023/05/29 02:57:52;;;;;;;;;;;;;;;12.80;71.15;96454.56;5027084;28;20240;-71
2023/05/29 03:00:18;;;;;;;;;;;;;;;12.74;71.04;96453.66;5026839;28;19958;-70
2023/05/29 03:02:44;;;;;;;;;;;;;;;12.68;71.23;96445.88;5027497;28;19969;-71
2023/05/29 03:05:10;;;;;;;;;;;;;;;12.67;71.50;96449.56;5027486;28;20259;-75
2023/05/29 03:07:36;;;;;;;;;;;;;;;12.61;71.37;96453.91;5026324;28;19961;-75
2023/05/29 03:10:03;;;;;;;;;;;;;;;12.59;71.76;96458.59;5027480;28;19964;-75
2023/05/29 03:12:29;;;;;;;;;;;;;;;12.56;71.70;96456.44;5026248;28;19969;-75
2023/05/29 03:14:56;;;;;;;;;;;;;;;12.53;72.02;96462.16;5027714;28;19961;-75
2023/05/29 03:17:22;;;;;;;;;;;;;;;12.49;72.52;96459.16;5027403;28;19957;-75
2023/05/29 03:19:47;;;;;;;;;;;;;;;12.42;72.64;96455.06;5027608;28;19960;-72
2023/05/29 03:22:13;;;;;;;;;;;;;;;12.35;73.17;96465.72;5027558;28;19972;-78
2023/05/29 03:24:39;;;;;;;;;;;;;;;12.28;73.22;96457.13;5027425;28;19958;-76
2023/05/29 03:27:05;;;;;;;;;;;;;;;12.22;72.78;96463.28;5026403;28;19961;-78
2023/05/29 03:29:31;;;;;;;;;;;;;;;12.14;73.54;96461.81;5026276;28;19960;-78
2023/05/29 03:31:57;;;;;;;;;;;;;;;12.06;73.62;96456.88;5027437;28;19967;-79
2023/05/29 03:34:23;;;;;;;;;;;;;;;12.00;74.13;96465.66;5027366;28;20139;-79
2023/05/29 03:36:49;;;;;;;;;;;;;;;11.94;74.02;96460.28;5025684;28;20238;-78
2023/05/29 03:39:15;;;;;;;;;;;;;;;11.91;74.98;96452.84;5042510;28;20244;-70
2023/05/29 03:41:41;;;;;;;;;;;;;;;11.85;75.17;96461.59;5025622;28;19969;-70
2023/05/29 03:44:07;;;;;;;;;;;;;;;11.82;75.10;96464.66;5026957;28;20261;-70
2023/05/29 03:46:32;;;;;;;;;;;;;;;11.80;75.80;96469.38;5027099;28;19965;-69
2023/05/29 03:48:58;;;;;;;;;;;;;;;11.79;75.40;96470.38;5027015;28;20114;-69
2023/05/29 03:51:24;;;;;;;;;;;;;;;11.77;76.89;96478.47;5026835;28;19958;-70
2023/05/29 03:53:50;;;;;;;;;;;;;;;11.79;75.62;96467.75;5026363;28;19948;-69
2023/05/29 03:56:16;;;;;;;;;;;;;;;11.80;76.27;96474.63;5027081;28;19970;-71
2023/05/29 03:58:42;;;;;;;;;;;;;;;11.79;76.43;96468.56;5025792;28;19959;-71
2023/05/29 04:01:09;;;;;;;;;;;;;;;11.81;76.66;96470.16;5026610;28;20040;-72
2023/05/29 04:03:35;;;;;;;;;;;;;;;11.78;76.43;96469.59;5025518;28;19973;-74
2023/05/29 04:06:01;;;;;;;;;;;;;;;11.76;76.64;96469.00;5026523;28;20143;-73
2023/05/29 04:08:26;;;;;;;;;;;;;;;11.74;77.00;96473.69;5025394;28;19963;-73
2023/05/29 04:10:53;;;;;;;;;;;;;;;11.74;76.68;96478.16;5025073;28;19967;-72
2023/05/29 04:13:20;;;;;;;;;;;;;;;11.72;76.54;96478.38;5026333;28;19956;-72
2023/05/29 04:15:46;;;;;;;;;;;;;;;11.74;77.01;96488.66;5026545;28;19959;-70
2023/05/29 04:18:12;;;;;;;;;;;;;;;11.72;75.42;96488.06;5025012;28;19975;-73
2023/05/29 04:20:38;;;;;;;;;;;;;;;11.71;77.05;96497.75;5025093;28;19958;-72
2023/05/29 04:23:03;;;;;;;;;;;;;;;11.75;77.07;96495.50;5026199;28;19968;-75
2023/05/29 04:25:29;;;;;;;;;;;;;;;11.80;77.30;96503.53;5024635;28;19993;-73
2023/05/29 04:27:55;;;;;;;;;;;;;;;11.85;76.70;96495.75;5026453;28;20237;-74
2023/05/29 04:30:21;;;;;;;;;;;;;;;11.91;76.19;96505.41;5026121;28;19966;-73
2023/05/29 04:32:48;;;;;;;;;;;;;;;12.00;77.23;96503.25;5025713;28;19965;-76
2023/05/29 04:35:14;;;;;;;;;;;;;;;12.06;77.14;96510.25;5041522;28;19959;-72
2023/05/29 04:37:39;;;;;;;;;;;;;;;12.15;77.76;96513.34;5026002;28;20269;-70
2023/05/29 04:40:08;;;;;;;;;;;;;;;12.25;77.87;96510.97;5024539;28;20004;-70
2023/05/29 04:42:35;;;;;;;;;;;;;;;12.32;77.45;96508.22;5025738;28;19967;-70
2023/05/29 04:45:01;;;;;;;;;;;;;;;12.42;77.26;96510.31;5025340;28;19956;-70
2023/05/29 04:47:27;;;;;;;;;;;;;;;12.51;77.49;96517.59;5025849;28;19963;-70
2023/05/29 04:49:53;;;;;;;;;;;;;;;12.64;76.07;96508.72;5008102;28;20126;-70
2023/05/29 04:52:21;;;;;;;;;;;;;;;12.79;75.69;96513.50;5024312;28;19957;-72
2023/05/29 04:54:46;;;;;;;;;;;;;;;12.94;75.90;96520.94;5041362;28;19959;-69
2023/05/29 04:57:12;;;;;;;;;;;;;;;13.10;75.85;96514.97;5025922;28;20265;-70
2023/05/29 04:59:38;;;;;;;;;;;;;;;13.28;74.40;96507.94;5025621;28;19964;-69
2023/05/29 05:02:04;;;;;;;;;;;;;;;13.45;74.29;96513.28;5023377;28;20272;-70
2023/05/29 05:04:30;;;;;;;;;;;;;;;13.64;73.33;96516.56;5025581;28;19970;-70
2023/05/29 05:06:56;;;;;;;;;;;;;;;13.81;73.38;96518.19;5025527;28;19966;-70
2023/05/29 05:09:22;;;;;;;;;;;;;;;14.01;72.04;96514.31;5025331;28;20000;-69
2023/05/29 05:11:47;;;;;;;;;;;;;;;14.23;70.99;96508.34;5025435;28;19970;-72
2023/05/29 05:14:13;;;;;;;;;;;;;;;14.43;70.64;96502.59;5023710;28;19969;-73
2023/05/29 05:16:39;;;;;;;;;;;;;;;14.62;70.43;96498.69;5025364;28;19990;-72
2023/05/29 05:19:05;;;;;;;;;;;;;;;14.81;69.57;96497.38;5040441;28;19970;-72
2023/05/29 05:21:32;;;;;;;;;;;;;;;15.01;69.00;96491.56;5023844;28;19958;-73
2023/05/29 05:23:59;;;;;;;;;;;;;;;15.21;67.72;96487.56;5025463;28;19965;-72
2023/05/29 05:26:28;;;;;;;;;;;;;;;15.40;67.50;96493.34;5024990;28;20270;-73
2023/05/29 05:28:54;;;;;;;;;;;;;;;15.60;66.04;96490.94;5025207;28;19964;-70
2023/05/29 05:31:19;;;;;;;;;;;;;;;15.83;66.31;96495.16;5024802;28;19970;-72
2023/05/29 05:33:45;;;;;;;;;;;;;;;16.10;65.29;96485.59;5039995;28;19963;-73
2023/05/29 05:36:11;;;;;;;;;;;;;;;16.34;64.46;96480.78;5023882;28;20047;-73
2023/05/29 05:38:37;;;;;;;;;;;;;;;16.56;64.36;96491.22;5023494;28;19967;-72
2023/05/29 05:41:03;;;;;;;;;;;;;;;16.77;63.97;96481.56;5039957;28;19970;-73
2023/05/29 05:43:29;;;;;;;;;;;;;;;16.97;63.18;96478.28;5024487;28;19975;-71
2023/05/29 05:45:55;;;;;;;;;;;;;;;17.14;62.89;96476.22;5024938;28;19971;-72
2023/05/29 05:48:21;;;;;;;;;;;;;;;17.31;62.43;96481.31;5024842;28;20171;-69
2023/05/29 05:50:47;;;;;;;;;;;;;;;17.49;62.34;96480.06;5024852;28;19962;-70
2023/05/29 05:53:13;;;;;;;;;;;;;;;17.67;61.45;96472.69;5024563;28;20137;-71
2023/05/29 05:55:39;;;;;;;;;;;;;;;17.83;61.42;96474.34;5023593;28;20043;-70
2023/05/29 05:58:04;;;;;;;;;;;;;;;18.01;59.70;96476.44;5023797;28;19958;-71
2023/05/29 06:00:30;;;;;;;;;;;;;;;18.12;60.02;96485.25;5024548;28;19962;-70
2023/05/29 06:02:56;;;;;;;;;;;;;;;18.23;60.41;96478.88;5024458;28;19969;-70
2023/05/29 06:05:22;;;;;;;;;;;;;;;18.29;59.12;96476.19;5024397;28;19986;-75
2023/05/29 06:07:48;;;;;;;;;;;;;;;18.42;59.26;96483.63;5039623;28;19965;-74
2023/05/29 06:10:14;;;;;;;;;;;;;;;18.59;57.85;96470.06;5039800;28;19961;-76
2023/05/29 06:12:40;;;;;;;;;;;;;;;18.79;59.34;96478.03;5024725;28;19959;-74
2023/05/29 06:15:06;;;;;;;;;;;;;;;18.94;57.73;96477.19;5026415;28;20246;-76
2023/05/29 06:17:33;;;;;;;;;;;;;;;19.01;56.16;96475.03;5028443;28;20142;-76
2023/05/29 06:20:00;;;;;;;;;;;;;;;19.10;57.63;96479.78;5027105;28;19974;-75
2023/05/29 06:22:26;;;;;;;;;;;;;;;19.21;56.44;96479.50;5027758;28;19963;-76
2023/05/29 06:24:51;;;;;;;;;;;;;;;19.32;56.30;96485.56;5028377;28;19959;-76
2023/05/29 06:27:18;;;;;;;;;;;;;;;19.44;56.27;96480.72;5028353;28;20234;-71
2023/05/29 06:29:44;;;;;;;;;;;;;;;19.55;55.53;96486.78;5026527;28;19968;-72
2023/05/29 06:32:10;;;;;;;;;;;;;;;19.65;56.21;96480.59;5010179;28;19970;-71
2023/05/29 06:34:36;;;;;;;;;;;;;;;19.77;55.23;96488.28;5043369;28;19964;-71
2023/05/29 06:37:02;;;;;;;;;;;;;;;19.87;54.60;96490.88;5026672;28;19960;-71
2023/05/29 06:39:28;;;;;;;;;;;;;;;19.92;55.49;96496.16;5026481;28;19962;-71
2023/05/29 06:41:54;;;;;;;;;;;;;;;19.93;54.42;96491.63;5026510;28;19965;-72
2023/05/29 06:44:20;;;;;;;;;;;;;;;19.99;54.32;96495.84;5042963;28;19967;-70
2023/05/29 06:46:46;;;;;;;;;;;;;;;20.02;53.91;96490.78;5027938;28;19955;-73
2023/05/29 06:49:12;;;;;;;;;;;;;;;20.06;53.99;96497.13;5026520;28;19969;-72
2023/05/29 06:51:37;;;;;;;;;;;;;;;20.00;53.45;96500.13;5042757;28;19974;-72
2023/05/29 06:54:03;;;;;;;;;;;;;;;19.92;54.80;96506.03;5027814;28;20004;-72
2023/05/29 06:56:30;;;;;;;;;;;;;;;19.82;53.42;96502.38;5027629;28;19964;-73
2023/05/29 06:58:56;;;;;;;;;;;;;;;19.75;53.31;96495.75;5027686;28;19974;-72
2023/05/29 07:01:23;;;;;;;;;;;;;;;19.67;53.11;96505.88;5027402;28;19967;-71
2023/05/29 07:04:07;;;;;;;;;;;;;;;19.58;53.81;96512.81;5027835;28;19971;-75
2023/05/29 07:06:33;;;;;;;;;;;;;;;19.50;54.70;96517.94;5027597;28;19957;-76
2023/05/29 07:08:59;;;;;;;;;;;;;;;19.52;54.98;96519.25;5027162;28;19963;-75
2023/05/29 07:11:26;;;;;;;;;;;;;;;19.60;54.66;96517.88;5027415;28;19961;-76
2023/05/29 07:13:53;;;;;;;;;;;;;;;19.67;54.84;96521.84;5026173;28;19975;-74
2023/05/29 07:16:19;;;;;;;;;;;;;;;19.68;54.61;96520.75;5026175;28;20146;-75
2023/05/29 07:18:45;;;;;;;;;;;;;;;19.70;54.95;96523.19;5027379;28;19946;-77
2023/05/29 07:21:11;;;;;;;;;;;;;;;19.80;55.06;96524.97;5027329;28;20022;-75
2023/05/29 07:23:36;;;;;;;;;;;;;;;19.92;54.11;96524.66;5026986;28;20014;-69
2023/05/29 07:26:02;;;;;;;;;;;;;;;19.99;54.92;96523.28;5025773;28;19970;-69
2023/05/29 07:28:28;;;;;;;;;;;;;;;20.06;53.63;96521.09;5025501;28;19973;-70
2023/05/29 07:30:54;;;;;;;;;;;;;;;20.07;52.93;96525.38;5026869;28;20010;-69
2023/05/29 07:33:20;;;;;;;;;;;;;;;20.10;53.43;96524.00;5026901;28;19968;-69
2023/05/29 07:35:46;;;;;;;;;;;;;;;20.07;54.05;96533.34;5026890;28;19954;-70
2023/05/29 07:38:12;;;;;;;;;;;;;;;20.10;55.73;96541.84;5026905;28;19967;-71
2023/05/29 07:40:38;;;;;;;;;;;;;;;20.22;54.51;96543.09;5042008;28;19999;-75
2023/05/29 07:43:03;;;;;;;;;;;;;;;20.35;55.10;96539.00;5027100;28;19996;-73
2023/05/29 07:45:30;;;;;;;;;;;;;;;20.51;54.74;96541.53;5026816;28;19950;-73
2023/05/29 07:47:55;;;;;;;;;;;;;;;20.67;54.12;96540.38;5026356;28;19958;-75
2023/05/29 07:50:21;;;;;;;;;;;;;;;20.79;54.10;96538.13;5026702;28;19961;-75
2023/05/29 07:52:47;;;;;;;;;;;;;;;20.95;53.95;96540.66;5027104;28;19982;-76
2023/05/29 07:55:13;;;;;;;;;;;;;;;21.15;53.58;96547.66;5026241;28;19959;-73
2023/05/29 07:57:39;;;;;;;;;;;;;;;21.29;52.25;96530.69;5041714;28;19965;-75
2023/05/29 08:00:05;;;;;;;;;;;;;;;21.37;51.59;96529.25;5026428;28;19998;-74
2023/05/29 08:02:31;;;;;;;;;;;;;;;21.48;51.57;96530.75;5025152;28;19980;-73
2023/05/29 08:04:57;;;;;;;;;;;;;;;21.63;51.69;96534.31;5026222;28;19983;-73
2023/05/29 08:07:23;;;;;;;;;;;;;;;21.77;51.26;96537.06;5025907;28;19951;-73
2023/05/29 08:09:49;;;;;;;;;;;;;;;21.85;51.39;96529.19;5025069;28;20090;-70
2023/05/29 08:12:15;;;;;;;;;;;;;;;21.93;50.79;96535.00;5026484;28;19964;-72
2023/05/29 08:14:41;;;;;;;;;;;;;;;22.06;50.58;96537.72;5025134;28;19959;-72
2023/05/29 08:17:07;;;;;;;;;;;;;;;22.21;49.19;96533.22;5041341;28;19971;-72
2023/05/29 08:19:33;;;;;;;;;;;;;;;22.21;48.97;96542.03;5026384;28;19989;-73
2023/05/29 08:21:59;;;;;;;;;;;;;;;22.25;49.25;96543.06;5026398;28;19959;-72
2023/05/29 08:24:25;;;;;;;;;;;;;;;22.28;49.87;96547.06;5025593;28;20040;-72
2023/05/29 08:26:51;;;;;;;;;;;;;;;22.46;50.17;96540.09;5025956;28;19955;-72
2023/05/29 08:29:17;;;;;;;;;;;;;;;22.60;46.99;96540.94;5025903;28;20215;-72
2023/05/29 08:31:42;;;;;;;;;;;;;;;22.61;48.62;96547.06;5025670;28;20008;-71
2023/05/29 08:34:10;;;;;;;;;;;;;;;22.67;48.73;96540.56;5025921;28;20259;-70
2023/05/29 08:36:35;;;;;;;;;;;;;;;22.75;49.22;96539.09;5024913;28;20156;-80
2023/05/29 08:39:01;;;;;;;;;;;;;;;22.78;47.14;96533.16;5023913;28;19978;-78
2023/05/29 08:41:31;;;;;;;;;;;;;;;22.89;47.37;96537.25;5025837;28;19963;-77
2023/05/29 08:43:59;;;;;;;;;;;;;;;22.99;47.29;96530.91;5025750;28;19987;-75
2023/05/29 08:46:26;;;;;;;;;;;;;;;23.10;48.44;96543.84;5025193;28;19946;-77
2023/05/29 08:48:54;;;;;;;;;;;;;;;23.26;47.31;96533.63;5025194;28;19965;-80
2023/05/29 08:51:23;;;;;;;;;;;;;;;23.35;46.89;96536.41;5025181;28;19979;-78
2023/05/29 08:53:51;;;;;;;;;;;;;;;23.33;45.88;96533.25;5041014;28;19959;-70
2023/05/29 08:56:17;;;;;;;;;;;;;;;23.32;47.86;96545.03;5025481;28;19953;-70
2023/05/29 08:58:43;;;;;;;;;;;;;;;23.37;46.49;96533.41;5025321;28;19965;-69
2023/05/29 09:01:10;;;;;;;;;;;;;;;23.42;44.57;96536.78;5040384;28;19964;-68
2023/05/29 09:03:37;;;;;;;;;;;;;;;23.50;44.64;96536.09;5025414;28;19967;-68
2023/05/29 09:06:03;;;;;;;;;;;;;;;23.51;44.66;96537.66;5025392;28;19961;-68
2023/05/29 09:08:30;;;;;;;;;;;;;;;23.44;43.77;96544.53;5025345;28;20028;-72
2023/05/29 09:10:56;;;;;;;;;;;;;;;23.29;39.45;96551.78;5025353;28;19973;-69
2023/05/29 09:13:22;;;;;;;;;;;;;;;23.30;43.01;96555.22;5025231;28;19968;-69
2023/05/29 09:15:48;;;;;;;;;;;;;;;23.22;40.45;96556.69;5025188;28;19945;-68
2023/05/29 09:18:17;;;;;;;;;;;;;;;23.19;39.50;96565.34;5025197;28;20128;-68
2023/05/29 09:20:43;;;;;;;;;;;;;;;23.29;42.31;96562.47;5024092;28;19965;-68
2023/05/29 09:23:09;;;;;;;;;;;;;;;23.32;38.02;96553.06;5025075;28;19971;-69
2023/05/29 09:25:42;;;;;;;;;;;;;;;23.31;39.55;96562.19;5024272;28;20180;-68
2023/05/29 09:28:08;;;;;;;;;;;;;;;23.35;40.14;96573.06;5025145;28;20148;-68
2023/05/29 09:30:34;;;;;;;;;;;;;;;23.36;39.16;96558.59;5025617;28;20203;-69
2023/05/29 09:33:01;;;;;;;;;;;;;;;23.39;37.78;96569.53;5024986;28;19973;-69
2023/05/29 09:35:34;;;;;;;;;;;;;;;23.47;39.05;96568.00;5024873;28;19976;-69
2023/05/29 09:38:00;;;;;;;;;;;;;;;23.57;38.68;96562.47;5024340;28;20152;-69
2023/05/29 09:40:29;;;;;;;;;;;;;;;23.55;38.59;96569.22;5024286;28;19950;-71
2023/05/29 09:42:55;;;;;;;;;;;;;;;23.56;36.03;96565.44;5023727;28;20120;-70
2023/05/29 09:45:21;;;;;;;;;;;;;;;23.71;39.98;96575.84;5024991;28;19961;-81
2023/05/29 09:47:48;;;;;;;;;;;;;;;23.78;36.11;96568.22;5024387;28;19979;-78
2023/05/29 09:50:23;;;;;;;;;;;;;;;23.93;38.49;96569.00;5024270;28;20266;-73
2023/05/29 09:52:53;;;;;;;;;;;;;;;24.11;40.23;96576.88;5023334;28;19978;-72
2023/05/29 09:55:26;;;;;;;;;;;;;;;24.30;40.50;96573.28;5022872;28;20160;-73
2023/05/29 09:57:53;;;;;;;;;;;;;;;24.24;37.43;96577.94;5024597;28;20138;-72
2023/05/29 10:00:19;;;;;;;;;;;;;;;24.16;37.92;96575.19;5024578;28;19955;-73
2023/05/29 10:02:45;;;;;;;;;;;;;;;24.06;38.19;96570.84;5025295;28;19967;-73
2023/05/29 10:05:12;;;;;;;;;;;;;;;24.09;36.06;96567.56;5024267;28;19955;-72
2023/05/29 10:07:43;;;;;;;;;;;;;;;24.20;37.92;96576.19;5024426;28;20184;-76
2023/05/29 10:10:11;;;;;;;;;;;;;;;24.27;38.92;96571.19;5024415;28;19957;-77
2023/05/29 10:12:38;;;;;;;;;;;;;;;24.40;38.31;96573.03;5024404;28;19966;-77
2023/05/29 10:15:14;;;;;;;;;;;;;;;24.56;38.59;96570.78;5024550;28;19962;-76
2023/05/29 10:18:00;;;;;;;;;;;;;;;24.68;37.56;96567.56;5024438;28;19961;-76
2023/05/29 10:20:26;;;;;;;;;;;;;;;24.76;38.13;96572.22;5024145;28;20213;-77
2023/05/29 10:22:54;;;;;;;;;;;;;;;24.94;38.05;96572.28;5024341;28;19970;-72
2023/05/29 10:25:21;;;;;;;;;;;;;;;24.91;37.12;96574.50;5024328;28;20227;-79
2023/05/29 10:27:48;;;;;;;;;;;;;;;24.50;35.19;96578.16;5023835;28;20129;-69
2023/05/29 10:30:25;;;;;;;;;;;;;;;24.19;34.88;96572.72;5024494;28;19957;-69
2023/05/29 10:32:59;;;;;;;;;;;;;;;24.14;38.20;96572.81;5023839;28;19957;-69
2023/05/29 10:35:40;;;;;;;;;;;;;;;24.14;37.58;96569.34;5023822;28;19962;-69
2023/05/29 10:38:11;;;;;;;;;;;;;;;24.22;37.89;96571.31;5024223;28;19953;-69
2023/05/29 10:40:37;;;;;;;;;;;;;;;24.49;38.08;96568.53;5024144;28;19960;-76
2023/05/29 10:43:04;;;;;;;;;;;;;;;24.72;38.12;96576.59;5023949;28;19975;-71
2023/05/29 10:45:31;;;;;;;;;;;;;;;24.98;39.54;96570.59;5023343;28;19968;-77
2023/05/29 10:48:12;;;;;;;;;;;;;;;25.17;38.00;96567.69;5023916;28;19949;-77
2023/05/29 10:50:40;;;;;;;;;;;;;;;25.27;38.01;96570.91;5023824;28;19968;-80
2023/05/29 10:53:07;;;;;;;;;;;;;;;25.39;38.22;96561.47;5023350;28;19954;-85
2023/05/29 10:55:36;;;;;;;;;;;;;;;25.36;35.69;96559.41;5023930;28;19952;-83
2023/05/29 10:58:10;;;;;;;;;;;;;;;25.30;38.31;96567.63;5023633;28;19951;-83
2023/05/29 11:00:42;;;;;;;;;;;;;;;25.33;38.27;96563.50;5024990;28;19957;-80
2023/05/29 11:03:08;;;;;;;;;;;;;;;25.40;36.62;96557.69;5026470;28;19970;-71
2023/05/29 11:05:34;;;;;;;;;;;;;;;25.51;38.49;96564.34;5042796;28;19962;-71
2023/05/29 11:08:05;;;;;;;;;;;;;;;25.52;36.40;96565.94;5026290;28;20006;-70
2023/05/29 11:10:41;;;;;;;;;;;;;;;25.60;36.79;96553.63;5026895;28;19945;-72
2023/05/29 11:13:07;;;;;;;;;;;;;;;25.83;38.56;96552.44;5027411;28;19953;-70
2023/05/29 11:15:33;;;;;;;;;;;;;;;26.04;37.73;96549.16;5027463;28;19954;-70
2023/05/29 11:18:06;;;;;;;;;;;;;;;26.10;37.76;96548.69;5025858;28;19967;-72
2023/05/29 11:20:49;;;;;;;;;;;;;;;26.10;35.20;96556.75;5027183;28;20139;-70
2023/05/29 11:23:17;;;;;;;;;;;;;;;26.08;36.50;96550.09;5027292;28;20257;-72
2023/05/29 11:25:44;;;;;;;;;;;;;;;26.25;37.00;96546.66;5027306;28;19949;-72
2023/05/29 11:28:10;;;;;;;;;;;;;;;26.47;37.24;96546.47;5027265;28;19977;-72
2023/05/29 11:30:43;;;;;;;;;;;;;;;26.57;36.84;96536.53;5025677;28;20172;-73
2023/05/29 11:33:16;;;;;;;;;;;;;;;26.33;34.63;96552.03;5026886;28;20164;-73
2023/05/29 11:35:42;;;;;;;;;;;;;;;26.01;33.41;96544.41;5027071;28;19954;-78
2023/05/29 11:38:07;;;;;;;;;;;;;;;26.03;35.14;96547.59;5027085;28;19966;-71
2023/05/29 11:40:37;;;;;;;;;;;;;;;26.13;35.46;96547.28;5027215;28;20008;-73
2023/05/29 11:43:03;;;;;;;;;;;;;;;26.20;35.72;96547.56;5026928;28;19961;-76
2023/05/29 11:45:32;;;;;;;;;;;;;;;26.24;34.04;96545.06;5026835;28;19957;-77
2023/05/29 11:47:58;;;;;;;;;;;;;;;26.03;34.96;96537.63;5026705;28;19966;-75
2023/05/29 11:50:26;;;;;;;;;;;;;;;26.05;34.53;96540.00;5026780;28;19957;-75
2023/05/29 11:52:52;;;;;;;;;;;;;;;26.12;34.20;96532.22;5026788;28;19956;-75
2023/05/29 11:55:22;;;;;;;;;;;;;;;26.03;32.33;96526.88;5026317;28;20132;-72
2023/05/29 11:57:48;;;;;;;;;;;;;;;26.16;33.87;96538.56;5041564;28;19950;-71
2023/05/29 12:00:15;;;;;;;;;;;;;;;26.41;35.66;96530.81;5026599;28;19966;-70
2023/05/29 12:02:42;;;;;;;;;;;;;;;26.60;35.34;96523.22;5026620;28;19956;-71
2023/05/29 12:05:09;;;;;;;;;;;;;;;26.71;34.82;96520.97;5026410;28;19968;-70
2023/05/29 12:07:35;;;;;;;;;;;;;;;26.72;34.67;96526.03;5024878;28;20208;-70
2023/05/29 12:10:10;;;;;;;;;;;;;;;26.48;34.21;96528.41;5026630;28;20130;-70
2023/05/29 12:12:36;;;;;;;;;;;;;;;26.32;34.56;96525.44;5040371;28;19953;-75
2023/05/29 12:15:05;;;;;;;;;;;;;;;26.38;34.10;96534.94;5025897;28;20145;-68
2023/05/29 12:17:31;;;;;;;;;;;;;;;26.43;34.71;96524.00;5026379;28;19956;-72
2023/05/29 12:19:57;;;;;;;;;;;;;;;26.40;32.61;96526.56;5026305;28;19953;-72
2023/05/29 12:22:34;;;;;;;;;;;;;;;26.40;34.01;96530.03;5026221;28;20022;-72
2023/05/29 12:25:06;;;;;;;;;;;;;;;26.46;34.31;96526.06;5026075;28;19978;-72
2023/05/29 12:27:32;;;;;;;;;;;;;;;26.43;33.54;96532.06;5025689;28;20116;-72
2023/05/29 12:30:01;;;;;;;;;;;;;;;26.39;34.59;96525.75;5026238;28;19970;-72
2023/05/29 12:32:34;;;;;;;;;;;;;;;26.33;33.47;96529.69;5025947;28;19961;-69
2023/05/29 12:35:00;;;;;;;;;;;;;;;26.33;33.48;96529.69;5025838;28;19963;-71
2023/05/29 12:37:26;;;;;;;;;;;;;;;26.42;31.56;96522.44;5026088;28;20233;-72
2023/05/29 12:40:30;;;;;;;;;;;;;;;26.47;33.49;96529.53;5024843;28;19956;-72
2023/05/29 12:42:56;;;;;;;;;;;;;;;26.45;33.25;96529.06;5004182;28;20268;-72
2023/05/29 12:45:26;;;;;;;;;;;;;;;26.36;32.59;96514.84;4988124;28;20046;-73
2023/05/29 12:47:52;;;;;;;;;;;;;;;26.28;32.64;96524.50;5004100;28;19961;-72